Time;durP1;ratioP1;P1;durP2;ratioP2;P2;SDS_P1;SDS_P2;PMS_P1;PMS_P2;Temp;Humidity;BMP_temperature;BMP_pressure;BME280_temperature;BME280_humidity;BME280_pressure;Samples;Min_cycle;Max_cycle;Signal;HPM_P1;HPM_P2
2022/02/15 00:01:04;;;;;;;6.35;1.50;;;;;;;9.22;68.50;100713.78;5002560;28;20049;-56
2022/02/15 00:03:30;;;;;;;8.48;1.40;;;;;;;9.21;68.08;100721.59;4989487;28;20057;-58
2022/02/15 00:05:56;;;;;;;6.55;1.77;;;;;;;9.21;68.29;100724.19;4998120;28;20139;-56
2022/02/15 00:08:21;;;;;;;5.63;1.30;;;;;;;9.25;68.80;100724.25;4990742;28;20451;-56
2022/02/15 00:10:47;;;;;;;7.60;1.40;;;;;;;9.28;68.61;100728.63;5002419;28;20486;-57
2022/02/15 00:13:13;;;;;;;5.65;1.25;;;;;;;9.30;68.19;100734.72;5000968;28;20412;-58
2022/02/15 00:15:39;;;;;;;7.22;1.70;;;;;;;9.32;68.38;100733.03;4997222;28;20060;-56
2022/02/15 00:18:04;;;;;;;5.38;1.60;;;;;;;9.31;67.94;100726.97;5000072;28;20493;-56
2022/02/15 00:20:29;;;;;;;4.85;1.60;;;;;;;9.29;68.23;100730.38;5003153;28;20047;-57
2022/02/15 00:22:55;;;;;;;7.88;1.40;;;;;;;9.34;67.59;100728.72;4986460;28;20112;-57
2022/02/15 00:25:21;;;;;;;6.43;1.50;;;;;;;9.33;67.93;100735.63;4992490;28;20507;-55
2022/02/15 00:27:47;;;;;;;5.70;1.70;;;;;;;9.28;67.93;100741.63;5000034;28;20060;-55
2022/02/15 00:30:13;;;;;;;4.60;1.50;;;;;;;9.23;67.78;100735.47;5000686;28;20037;-55
2022/02/15 00:32:38;;;;;;;7.05;1.50;;;;;;;9.12;67.68;100731.81;4999873;28;20519;-51
2022/02/15 00:35:05;;;;;;;6.32;1.70;;;;;;;9.01;68.05;100729.03;5000228;28;20538;-57
2022/02/15 00:37:30;;;;;;;9.13;1.80;;;;;;;8.93;68.67;100731.50;4992687;28;20471;-58
2022/02/15 00:39:56;;;;;;;4.80;1.70;;;;;;;8.91;68.92;100738.38;5002013;28;20048;-56
2022/02/15 00:42:21;;;;;;;8.10;1.75;;;;;;;8.92;68.86;100744.47;4996975;28;20056;-55
2022/02/15 00:44:46;;;;;;;4.38;1.80;;;;;;;8.80;68.68;100737.31;4994325;28;20041;-57
2022/02/15 00:47:12;;;;;;;4.53;1.85;;;;;;;8.79;68.72;100739.88;5000817;28;20045;-56
2022/02/15 00:49:37;;;;;;;6.07;2.00;;;;;;;8.67;69.01;100739.66;4994874;28;20053;-56
2022/02/15 00:52:03;;;;;;;8.45;1.77;;;;;;;8.62;69.24;100747.38;5000735;28;20941;-56
2022/02/15 00:54:28;;;;;;;8.73;2.08;;;;;;;8.53;69.69;100755.00;5000104;28;20053;-57
2022/02/15 00:56:54;;;;;;;4.13;1.63;;;;;;;8.51;69.15;100754.09;4990038;28;20559;-60
2022/02/15 00:59:19;;;;;;;7.95;2.17;;;;;;;8.44;69.85;100760.88;4991018;28;20496;-54
2022/02/15 01:01:44;;;;;;;7.90;2.22;;;;;;;8.39;70.41;100762.53;4997257;28;20065;-55
2022/02/15 01:04:10;;;;;;;10.52;2.35;;;;;;;8.40;70.35;100756.50;5000313;28;20049;-52
2022/02/15 01:06:36;;;;;;;8.35;2.20;;;;;;;8.45;70.29;100757.44;5001365;28;20049;-54
2022/02/15 01:09:02;;;;;;;7.68;2.20;;;;;;;8.43;71.36;100759.13;4998295;28;20073;-56
2022/02/15 01:11:28;;;;;;;10.63;2.17;;;;;;;8.47;71.35;100762.69;4992847;28;20395;-55
2022/02/15 01:13:53;;;;;;;8.27;2.50;;;;;;;8.49;71.18;100760.97;4998946;28;20067;-55
2022/02/15 01:16:18;;;;;;;8.82;2.30;;;;;;;8.45;71.59;100766.97;4999029;28;20479;-56
2022/02/15 01:18:44;;;;;;;7.07;2.05;;;;;;;8.62;71.31;100775.97;4998665;28;20056;-55
2022/02/15 01:21:09;;;;;;;6.90;1.92;;;;;;;8.59;71.49;100772.44;4994262;28;20144;-56
2022/02/15 01:23:35;;;;;;;9.15;2.50;;;;;;;8.72;71.09;100779.63;4990891;28;20512;-55
2022/02/15 01:26:00;;;;;;;11.05;2.42;;;;;;;8.79;71.52;100779.75;4987507;28;20453;-55
2022/02/15 01:28:25;;;;;;;10.15;2.47;;;;;;;8.91;71.62;100777.38;4997559;28;20037;-55
2022/02/15 01:30:51;;;;;;;8.65;2.22;;;;;;;9.00;71.48;100783.63;5000420;28;20045;-53
2022/02/15 01:33:17;;;;;;;10.32;2.38;;;;;;;9.04;71.37;100780.22;4987735;28;20549;-56
2022/02/15 01:35:42;;;;;;;8.63;2.30;;;;;;;9.17;71.11;100784.78;4997713;28;20057;-55
2022/02/15 01:38:08;;;;;;;8.70;2.20;;;;;;;9.27;70.31;100786.72;4997970;28;20070;-54
2022/02/15 01:40:33;;;;;;;8.57;2.38;;;;;;;9.31;70.38;100781.59;4996721;28;20261;-55
2022/02/15 01:43:10;;;;;;;8.02;2.35;;;;;;;9.32;70.13;100783.34;5002386;28;20567;-55
2022/02/15 01:45:35;;;;;;;8.93;2.55;;;;;;;9.44;69.94;100790.47;4991814;28;20050;-55
2022/02/15 01:48:01;;;;;;;9.00;2.30;;;;;;;9.45;69.64;100791.34;5000256;28;20033;-56
2022/02/15 01:50:26;;;;;;;11.02;2.50;;;;;;;9.47;69.57;100780.09;4996806;28;20042;-57
2022/02/15 01:52:51;;;;;;;9.05;2.80;;;;;;;9.51;69.58;100797.53;4996231;28;20037;-56
2022/02/15 01:55:17;;;;;;;10.38;2.60;;;;;;;9.53;69.65;100790.59;4997319;28;20049;-55
2022/02/15 01:57:43;;;;;;;15.10;2.85;;;;;;;9.51;69.38;100791.47;4993204;28;20285;-54
2022/02/15 02:00:15;;;;;;;7.95;2.90;;;;;;;9.51;69.85;100787.13;4997782;28;20156;-56
2022/02/15 02:02:46;;;;;;;12.98;3.30;;;;;;;9.53;69.52;100782.81;4998754;28;20034;-55
2022/02/15 02:07:57;;;;;;;9.68;3.72;;;;;;;9.58;69.21;100794.16;4999158;28;20052;-55
2022/02/15 02:10:23;;;;;;;9.95;3.33;;;;;;;9.68;69.01;100795.19;4998338;28;20492;-56
2022/02/15 02:12:48;;;;;;;10.90;3.60;;;;;;;9.64;69.29;100794.25;5000878;28;20055;-56
2022/02/15 02:15:20;;;;;;;11.48;3.30;;;;;;;9.68;68.81;100790.88;4997820;28;20065;-55
2022/02/15 02:17:46;;;;;;;9.77;3.05;;;;;;;9.69;68.97;100797.84;4996520;28;20489;-56
2022/02/15 02:20:12;;;;;;;15.48;3.13;;;;;;;9.71;68.97;100784.81;5001105;28;20091;-55
2022/02/15 02:22:37;;;;;;;12.70;3.20;;;;;;;9.66;69.16;100782.16;4997015;28;20052;-55
2022/02/15 02:25:04;;;;;;;9.93;3.33;;;;;;;9.68;68.75;100792.59;4999407;28;20041;-56
2022/02/15 02:27:31;;;;;;;12.93;3.72;;;;;;;9.66;68.80;100791.69;4987749;28;20111;-56
2022/02/15 02:29:57;;;;;;;15.73;3.45;;;;;;;9.62;69.06;100789.91;4996532;28;20493;-57
2022/02/15 02:32:25;;;;;;;13.35;3.53;;;;;;;9.65;68.95;100793.41;4997354;28;20049;-56
2022/02/15 02:34:52;;;;;;;12.75;3.33;;;;;;;9.69;68.87;100794.34;4999225;28;20038;-55
2022/02/15 02:37:18;;;;;;;11.93;2.90;;;;;;;9.69;68.72;100804.75;4999567;28;20045;-56
2022/02/15 02:39:46;;;;;;;14.60;3.38;;;;;;;9.65;68.99;100805.53;4990014;28;20076;-56
2022/02/15 02:42:12;;;;;;;10.25;2.97;;;;;;;9.67;69.14;100807.34;4999775;28;20127;-56
2022/02/15 02:44:38;;;;;;;9.60;3.22;;;;;;;9.65;69.25;100811.63;4995267;28;20042;-55
2022/02/15 02:47:04;;;;;;;15.45;3.70;;;;;;;9.66;68.88;100813.38;4993410;28;20397;-57
2022/02/15 02:49:30;;;;;;;14.15;3.40;;;;;;;9.65;68.64;100809.03;4994966;28;20532;-57
2022/02/15 02:51:56;;;;;;;16.45;3.42;;;;;;;9.59;68.81;100813.25;4997773;28;20045;-55
2022/02/15 02:54:23;;;;;;;10.70;3.20;;;;;;;9.64;68.79;100817.69;4994638;28;20060;-55
2022/02/15 02:56:48;;;;;;;12.82;3.70;;;;;;;9.62;69.07;100813.31;4998174;28;20042;-56
2022/02/15 02:59:13;;;;;;;13.50;3.85;;;;;;;9.66;68.98;100815.13;4999419;28;20060;-56
2022/02/15 03:01:39;;;;;;;19.25;4.25;;;;;;;9.73;68.41;100819.56;4988991;28;20072;-57
2022/02/15 03:04:05;;;;;;;14.05;4.53;;;;;;;9.67;68.47;100819.47;5001772;28;20072;-57
2022/02/15 03:06:30;;;;;;;12.55;4.55;;;;;;;9.67;68.48;100820.34;5006782;28;20444;-55
2022/02/15 03:08:56;;;;;;;13.45;4.38;;;;;;;9.68;68.44;100821.22;5000988;28;20042;-56
2022/02/15 03:11:21;;;;;;;15.60;4.60;;;;;;;9.62;68.44;100823.72;4995219;28;20618;-60
2022/02/15 03:13:46;;;;;;;12.15;4.50;;;;;;;9.63;68.46;100821.16;5001384;28;20534;-56
2022/02/15 03:16:12;;;;;;;11.82;4.15;;;;;;;9.68;68.78;100831.63;5001782;28;20037;-56
2022/02/15 03:18:37;;;;;;;14.75;4.25;;;;;;;9.59;68.48;100827.16;5004061;28;20457;-56
2022/02/15 03:21:02;;;;;;;15.85;4.18;;;;;;;9.60;68.98;100825.41;5000434;28;20519;-55
2022/02/15 03:23:28;;;;;;;11.65;4.05;;;;;;;9.62;68.80;100839.34;4999686;28;20045;-59
2022/02/15 03:25:53;;;;;;;14.38;4.30;;;;;;;9.61;68.66;100837.59;4995859;28;20041;-57
2022/02/15 03:28:18;;;;;;;13.32;3.90;;;;;;;9.69;68.61;100842.09;5000090;28;20053;-55
2022/02/15 03:30:44;;;;;;;13.65;3.67;;;;;;;9.67;68.64;100846.38;5002820;28;20034;-56
2022/02/15 03:33:09;;;;;;;12.68;3.67;;;;;;;9.67;68.57;100851.59;4999591;28;20411;-57
2022/02/15 03:35:35;;;;;;;13.18;3.75;;;;;;;9.62;68.94;100857.56;4978884;28;20049;-55
2022/02/15 03:38:01;;;;;;;13.15;4.07;;;;;;;9.67;68.64;100861.13;5001826;28;20390;-55
2022/02/15 03:43:04;;;;;;;18.63;4.03;;;;;;;9.69;68.72;100870.72;5001316;28;20049;-55
2022/02/15 03:43:11;;;;;;;14.98;3.60;;;;;;;9.74;68.62;100868.19;4996596;28;20386;-55
2022/02/15 03:45:37;;;;;;;10.38;3.42;;;;;;;9.72;68.52;100875.97;4986842;28;20153;-54
2022/02/15 03:48:03;;;;;;;11.25;3.50;;;;;;;9.83;68.12;100872.66;5005422;28;20048;-54
2022/02/15 03:50:28;;;;;;;12.30;3.22;;;;;;;9.82;67.92;100873.53;5001238;28;20183;-52
2022/02/15 03:53:02;;;;;;;11.82;3.65;;;;;;;9.76;67.79;100880.34;5004364;28;20044;-54
2022/02/15 03:55:27;;;;;;;10.32;3.22;;;;;;;9.79;68.32;100892.56;4993135;28;20505;-51
2022/02/15 03:57:53;;;;;;;12.93;3.20;;;;;;;9.75;68.30;100895.97;4989548;28;20059;-55
2022/02/15 04:00:18;;;;;;;14.43;3.20;;;;;;;9.77;68.23;100896.84;4999240;28;20132;-52
2022/02/15 04:02:43;;;;;;;13.45;3.28;;;;;;;9.74;68.26;100897.69;4999290;28;20037;-55
2022/02/15 04:05:09;;;;;;;13.20;3.20;;;;;;;9.73;68.58;100898.53;5002374;28;20516;-55
2022/02/15 04:07:35;;;;;;;10.45;3.08;;;;;;;9.79;68.51;100902.97;4990919;28;20363;-56
2022/02/15 04:10:00;;;;;;;9.35;2.65;;;;;;;9.75;68.50;100901.19;4999321;28;20092;-56
2022/02/15 04:12:26;;;;;;;13.45;2.90;;;;;;;9.76;68.18;100906.41;4997914;28;20080;-57
2022/02/15 04:14:51;;;;;;;12.65;3.35;;;;;;;9.77;68.20;100899.47;5000368;28;20041;-55
2022/02/15 04:17:17;;;;;;;10.88;2.90;;;;;;;9.80;67.92;100909.06;5000893;28;20045;-53
2022/02/15 04:19:42;;;;;;;12.48;3.40;;;;;;;9.75;68.03;100915.09;4998534;28;20057;-56
2022/02/15 04:22:09;;;;;;;10.35;2.85;;;;;;;9.78;67.91;100922.94;5001050;28;20119;-56
2022/02/15 04:24:34;;;;;;;15.95;3.35;;;;;;;9.74;67.87;100917.66;5001108;28;20850;-55
2022/02/15 04:26:59;;;;;;;15.68;3.00;;;;;;;9.75;68.17;100919.41;4998753;28;20054;-57
2022/02/15 04:29:26;;;;;;;11.20;2.97;;;;;;;9.77;67.55;100923.78;4992974;28;20041;-56
2022/02/15 04:31:52;;;;;;;13.65;2.70;;;;;;;9.72;67.98;100924.53;4998976;28;20045;-54
2022/02/15 04:34:17;;;;;;;11.50;2.47;;;;;;;9.75;67.54;100930.69;5003843;28;20045;-57
2022/02/15 04:36:42;;;;;;;10.65;2.30;;;;;;;9.72;68.06;100940.16;5002227;28;20574;-57
2022/02/15 04:39:08;;;;;;;10.23;2.25;;;;;;;9.73;67.17;100937.59;4994956;28;20061;-56
2022/02/15 04:41:33;;;;;;;8.60;2.20;;;;;;;9.78;67.38;100942.88;4990119;28;20741;-56
2022/02/15 04:43:58;;;;;;;12.05;2.42;;;;;;;9.77;67.35;100944.59;4997807;28;20050;-57
2022/02/15 04:46:24;;;;;;;10.18;2.30;;;;;;;9.70;67.53;100940.13;4995595;28;20415;-56
2022/02/15 04:48:52;;;;;;;12.88;2.58;;;;;;;9.62;67.58;100944.34;5001375;28;20052;-56
2022/02/15 04:51:17;;;;;;;10.30;2.15;;;;;;;9.66;67.63;100953.94;4989418;28;20472;-56
2022/02/15 04:53:42;;;;;;;12.07;2.35;;;;;;;9.68;67.85;100962.69;5001407;28;20194;-56
2022/02/15 04:56:08;;;;;;;12.13;2.10;;;;;;;9.69;67.39;100960.94;4997844;28;20127;-55
2022/02/15 04:58:33;;;;;;;7.30;2.20;;;;;;;9.74;67.30;100964.50;4997818;28;20068;-57
2022/02/15 05:00:58;;;;;;;12.10;2.53;;;;;;;9.73;67.03;100963.63;4995664;28;20045;-57
2022/02/15 05:03:24;;;;;;;15.38;2.50;;;;;;;9.68;67.47;100967.00;4994770;28;20602;-56
2022/02/15 05:05:49;;;;;;;13.68;2.08;;;;;;;9.72;67.14;100969.69;4992960;28;20048;-57
2022/02/15 05:08:14;;;;;;;11.98;2.00;;;;;;;9.81;66.56;100976.78;4999471;28;20091;-57
2022/02/15 05:10:41;;;;;;;14.05;2.00;;;;;;;9.76;66.59;100978.41;5005076;28;20091;-56
2022/02/15 05:13:08;;;;;;;21.65;2.70;;;;;;;9.71;66.51;100985.25;4997018;28;20263;-54
2022/02/15 05:15:35;;;;;;;11.98;2.30;;;;;;;9.69;66.41;100980.06;4993770;28;20456;-56
2022/02/15 05:18:05;;;;;;;10.20;2.17;;;;;;;9.71;66.04;100978.34;4979289;28;20033;-57
2022/02/15 05:20:30;;;;;;;10.82;2.00;;;;;;;9.71;66.60;100983.53;5002657;28;20132;-57
2022/02/15 05:23:00;;;;;;;13.35;1.95;;;;;;;9.69;66.94;100989.59;4997679;28;20114;-57
2022/02/15 05:25:25;;;;;;;12.35;2.10;;;;;;;9.65;66.48;100988.63;4996571;28;20072;-56
2022/02/15 05:27:53;;;;;;;11.40;2.45;;;;;;;9.72;65.90;100987.03;4997702;28;20438;-55
2022/02/15 05:30:19;;;;;;;10.57;2.10;;;;;;;9.70;66.44;100996.53;4996096;28;20510;-55
2022/02/15 05:32:44;;;;;;;9.30;2.58;;;;;;;9.66;66.17;100994.72;4994770;28;20197;-57
2022/02/15 05:35:10;;;;;;;8.57;2.20;;;;;;;9.72;65.82;100997.44;4986582;28;20592;-58
2022/02/15 05:37:36;;;;;;;12.93;2.33;;;;;;;9.70;65.77;100987.00;4995691;28;20852;-57
2022/02/15 05:40:04;;;;;;;11.00;2.00;;;;;;;9.63;66.44;100989.47;4998810;28;20153;-58
2022/02/15 05:42:29;;;;;;;12.63;3.05;;;;;;;9.60;66.18;100995.50;4996739;28;20136;-55
2022/02/15 05:44:54;;;;;;;11.88;2.47;;;;;;;9.66;65.99;101000.81;4997324;28;20041;-58
2022/02/15 05:47:20;;;;;;;9.75;2.30;;;;;;;9.65;65.95;100999.03;4993990;28;20049;-56
2022/02/15 05:52:30;;;;;;;9.73;2.38;;;;;;;9.58;66.41;101004.09;4998674;28;20048;-54
2022/02/15 05:54:55;;;;;;;11.30;2.60;;;;;;;9.53;66.04;101006.63;5000764;28;20065;-57
2022/02/15 05:57:21;;;;;;;13.00;2.85;;;;;;;9.51;66.33;101002.25;4982961;28;20041;-56
2022/02/15 05:59:47;;;;;;;14.15;3.33;;;;;;;9.58;65.41;101007.59;4997694;28;20041;-53
2022/02/15 06:02:12;;;;;;;14.93;3.40;;;;;;;9.57;65.00;101004.97;4996741;28;20056;-56
2022/02/15 06:04:37;;;;;;;14.55;3.20;;;;;;;9.52;65.20;101002.25;4996977;28;20487;-56
2022/02/15 06:07:04;;;;;;;15.52;3.30;;;;;;;9.59;65.13;101011.06;4997203;28;20147;-57
2022/02/15 06:09:30;;;;;;;16.23;3.20;;;;;;;9.52;64.97;101002.25;4992762;28;20540;-56
2022/02/15 06:11:55;;;;;;;14.23;2.95;;;;;;;9.48;65.40;101007.38;4996258;28;20076;-56
2022/02/15 06:14:21;;;;;;;19.85;3.40;;;;;;;9.40;66.02;101006.34;4999567;28;20097;-55
2022/02/15 06:16:46;;;;;;;10.57;2.88;;;;;;;9.42;65.89;101017.66;4995081;28;20049;-55
2022/02/15 06:19:11;;;;;;;13.27;3.47;;;;;;;9.37;65.74;101022.78;4995813;28;20045;-56
2022/02/15 06:21:37;;;;;;;16.48;3.13;;;;;;;9.31;66.68;101025.25;4991215;28;20373;-56
2022/02/15 06:24:02;;;;;;;15.68;2.88;;;;;;;9.27;66.52;101020.84;4997917;28;20048;-57
2022/02/15 06:26:28;;;;;;;9.27;2.65;;;;;;;9.20;66.63;101016.34;4999925;28;20053;-56
2022/02/15 06:28:53;;;;;;;8.45;2.78;;;;;;;9.10;66.10;101014.38;4994089;28;20069;-56
2022/02/15 06:31:18;;;;;;;11.88;3.05;;;;;;;9.00;66.56;101012.44;4997706;28;20543;-56
2022/02/15 06:33:44;;;;;;;11.93;2.78;;;;;;;8.83;66.93;101009.47;5001731;28;20029;-56
2022/02/15 06:36:09;;;;;;;14.10;3.40;;;;;;;8.66;67.09;101022.06;4998961;28;20132;-56
2022/02/15 06:38:35;;;;;;;15.32;3.05;;;;;;;8.54;67.31;101025.25;5002617;28;20041;-56
2022/02/15 06:41:00;;;;;;;14.27;3.40;;;;;;;8.45;67.93;101019.84;5001084;28;20049;-56
2022/02/15 06:43:26;;;;;;;12.60;3.25;;;;;;;8.42;68.25;101030.16;5000244;28;20038;-60
2022/02/15 06:45:51;;;;;;;11.93;3.08;;;;;;;8.44;68.56;101030.19;5000522;28;20115;-56
2022/02/15 06:48:17;;;;;;;12.68;3.00;;;;;;;8.49;68.44;101026.88;5002411;28;20032;-56
2022/02/15 06:50:42;;;;;;;13.68;3.33;;;;;;;8.63;68.07;101034.13;5004262;28;20052;-56
2022/02/15 06:53:07;;;;;;;10.80;3.20;;;;;;;8.62;68.01;101038.44;5000235;28;20850;-57
2022/02/15 06:55:33;;;;;;;14.73;3.10;;;;;;;8.70;68.25;101042.09;4996896;28;20041;-57
2022/02/15 06:57:58;;;;;;;17.20;3.25;;;;;;;8.83;67.54;101043.28;5004120;28;20050;-56
2022/02/15 07:00:23;;;;;;;10.25;2.90;;;;;;;8.91;67.78;101045.19;5003227;28;20514;-56
2022/02/15 07:02:49;;;;;;;16.10;3.10;;;;;;;8.93;67.27;101051.31;5000826;28;20065;-53
2022/02/15 07:05:14;;;;;;;15.00;2.80;;;;;;;9.06;67.27;101060.28;5001021;28;20041;-55
2022/02/15 07:07:40;;;;;;;15.95;2.85;;;;;;;9.07;66.66;101072.44;5011776;28;20166;-55
2022/02/15 07:10:06;;;;;;;11.57;2.88;;;;;;;9.11;66.88;101066.44;5003694;28;20045;-56
2022/02/15 07:12:32;;;;;;;14.18;2.85;;;;;;;9.10;66.51;101066.41;4997003;28;20756;-56
2022/02/15 07:14:58;;;;;;;16.27;3.00;;;;;;;9.20;66.57;101073.59;5001589;28;20048;-56
2022/02/15 07:17:24;;;;;;;14.95;2.90;;;;;;;9.29;66.11;101076.38;4992544;28;20041;-56
2022/02/15 07:19:50;;;;;;;14.20;2.88;;;;;;;9.28;66.04;101079.81;5003955;28;20045;-57
2022/02/15 07:22:16;;;;;;;15.50;2.85;;;;;;;9.27;66.56;101086.72;5000632;28;20045;-58
2022/02/15 07:24:41;;;;;;;19.38;2.70;;;;;;;9.32;66.38;101084.25;4997591;28;20478;-59
2022/02/15 07:27:06;;;;;;;11.80;2.63;;;;;;;9.41;65.95;101083.56;5001686;28;20515;-57
2022/02/15 07:29:32;;;;;;;9.73;2.60;;;;;;;9.47;65.82;101099.31;4993979;28;20864;-56
2022/02/15 07:31:57;;;;;;;11.13;2.63;;;;;;;9.47;65.21;101094.09;5002826;28;20049;-56
2022/02/15 07:34:23;;;;;;;13.95;2.60;;;;;;;9.51;64.80;101095.94;4998377;28;20041;-55
2022/02/15 07:36:50;;;;;;;11.20;2.42;;;;;;;9.53;65.33;101094.22;4988549;28;20041;-55
2022/02/15 07:39:20;;;;;;;12.75;2.60;;;;;;;9.58;65.15;101092.59;5000879;28;20085;-56
2022/02/15 07:41:47;;;;;;;15.00;2.42;;;;;;;9.63;65.38;101098.81;4993566;28;20049;-56
2022/02/15 07:44:12;;;;;;;11.60;2.30;;;;;;;9.65;65.03;101102.28;4998808;28;20026;-57
2022/02/15 07:46:38;;;;;;;12.10;2.70;;;;;;;9.68;64.50;101104.97;4993020;28;20676;-55
2022/02/15 07:49:03;;;;;;;13.73;2.60;;;;;;;9.64;64.09;101105.75;5000238;28;20064;-56
2022/02/15 07:51:29;;;;;;;10.18;2.25;;;;;;;9.74;63.69;101110.31;4993067;28;20533;-55
2022/02/15 07:53:54;;;;;;;14.50;2.33;;;;;;;9.74;63.23;101113.78;4998979;28;20071;-55
2022/02/15 07:56:19;;;;;;;9.15;2.25;;;;;;;9.73;63.29;101109.44;5000803;28;20038;-56
2022/02/15 07:58:45;;;;;;;8.93;2.03;;;;;;;9.85;63.21;101111.41;4994922;28;20052;-57
2022/02/15 08:01:10;;;;;;;8.52;1.90;;;;;;;9.81;62.67;101111.31;4982851;28;20030;-55
2022/02/15 08:03:35;;;;;;;14.93;2.42;;;;;;;9.95;63.03;101118.53;4991629;28;20315;-56
2022/02/15 08:06:01;;;;;;;8.20;1.92;;;;;;;10.08;62.59;101104.03;4996893;28;20148;-57
2022/02/15 08:08:26;;;;;;;13.30;2.72;;;;;;;10.16;62.09;101110.25;5001982;28;20081;-57
2022/02/15 08:10:56;;;;;;;12.55;2.35;;;;;;;10.24;62.18;101120.88;4999254;28;20107;-61
2022/02/15 08:13:21;;;;;;;10.80;2.20;;;;;;;10.31;61.73;101117.50;4997424;28;20160;-56
2022/02/15 08:15:50;;;;;;;12.95;2.50;;;;;;;10.38;60.96;101128.06;4990206;28;20450;-58
2022/02/15 08:18:16;;;;;;;19.25;2.50;;;;;;;10.33;60.95;101121.03;5000826;28;20052;-56
2022/02/15 08:20:41;;;;;;;10.15;2.20;;;;;;;10.36;60.29;101132.41;5001386;28;20041;-58
2022/02/15 08:23:09;;;;;;;10.63;2.88;;;;;;;10.34;60.10;101125.38;4994985;28;20089;-57
2022/02/15 08:25:35;;;;;;;10.98;2.40;;;;;;;10.15;59.56;101122.41;4998539;28;20042;-61
2022/02/15 08:28:01;;;;;;;14.77;2.75;;;;;;;10.06;59.96;101131.78;4995196;28;20053;-58
2022/02/15 08:30:26;;;;;;;14.02;2.47;;;;;;;9.79;60.78;101129.50;4999132;28;20061;-57
2022/02/15 08:32:54;;;;;;;11.60;2.60;;;;;;;9.87;60.82;101130.53;4972826;28;20045;-57
2022/02/15 08:35:20;;;;;;;15.98;3.10;;;;;;;9.78;61.12;101127.75;4994927;28;20077;-57
2022/02/15 08:37:45;;;;;;;13.52;2.78;;;;;;;9.84;61.55;101132.19;4994403;28;20060;-58
2022/02/15 08:40:15;;;;;;;15.43;2.85;;;;;;;10.02;60.75;101136.03;5000441;28;20049;-55
2022/02/15 08:42:42;;;;;;;12.23;2.58;;;;;;;10.03;59.90;101130.00;4989018;28;20575;-56
2022/02/15 08:45:09;;;;;;;11.45;2.50;;;;;;;10.03;60.23;101129.09;4998304;28;20284;-59
2022/02/15 08:47:35;;;;;;;15.50;2.95;;;;;;;9.96;60.44;101129.81;4992036;28;20049;-58
2022/02/15 08:50:00;;;;;;;16.10;2.83;;;;;;;9.91;60.28;101128.88;5000627;28;20048;-57
2022/02/15 08:52:29;;;;;;;10.32;2.45;;;;;;;9.88;60.24;101127.06;4996215;28;20045;-59
2022/02/15 08:54:55;;;;;;;12.10;2.65;;;;;;;9.91;60.39;101128.88;4997573;28;20060;-58
2022/02/15 08:57:22;;;;;;;19.55;3.20;;;;;;;9.86;60.72;101130.50;4996866;28;20928;-57
2022/02/15 08:59:48;;;;;;;12.38;2.70;;;;;;;10.01;60.59;101126.47;4996121;28;20120;-58
2022/02/15 09:02:13;;;;;;;11.82;2.90;;;;;;;10.15;60.25;101130.22;4994203;28;20045;-58
2022/02/15 09:04:39;;;;;;;13.43;2.55;;;;;;;10.28;59.87;101128.75;4999984;28;20037;-58
2022/02/15 09:07:06;;;;;;;15.35;3.03;;;;;;;10.29;59.25;101132.25;4998432;28;20076;-57
2022/02/15 09:09:32;;;;;;;13.38;2.45;;;;;;;10.52;59.35;101129.22;4987198;28;20155;-57
2022/02/15 09:11:57;;;;;;;15.45;2.85;;;;;;;10.42;58.88;101136.84;4990877;28;20539;-58
2022/02/15 09:14:22;;;;;;;13.88;2.60;;;;;;;10.41;58.18;101132.47;4996826;28;20073;-56
2022/02/15 09:16:48;;;;;;;11.18;2.60;;;;;;;10.32;58.66;101132.28;4988133;28;20033;-57
2022/02/15 09:19:13;;;;;;;11.63;2.30;;;;;;;10.05;59.13;101132.63;4997799;28;20045;-58
2022/02/15 09:21:39;;;;;;;15.13;2.30;;;;;;;10.03;59.25;101136.94;4989948;28;20041;-57
2022/02/15 09:24:05;;;;;;;9.88;1.90;;;;;;;10.00;59.33;101136.88;4994252;28;20077;-57
2022/02/15 09:26:31;;;;;;;8.90;1.88;;;;;;;10.10;58.89;101131.00;4997592;28;20450;-57
2022/02/15 09:28:58;;;;;;;12.07;2.33;;;;;;;10.17;59.13;101130.28;4994064;28;20054;-55
2022/02/15 09:31:24;;;;;;;16.50;2.85;;;;;;;10.49;59.24;101123.91;4992022;28;20444;-59
2022/02/15 09:33:52;;;;;;;14.80;2.58;;;;;;;10.73;58.67;101122.63;4994980;28;20049;-54
2022/02/15 09:36:24;;;;;;;15.40;2.70;;;;;;;10.79;57.48;101121.00;4994834;28;20568;-58
2022/02/15 09:38:49;;;;;;;13.25;2.38;;;;;;;11.01;57.34;101119.59;4992886;28;20267;-56
2022/02/15 09:41:16;;;;;;;6.38;1.90;;;;;;;11.25;56.93;101119.94;4997616;28;20456;-57
2022/02/15 09:43:42;;;;;;;10.07;2.20;;;;;;;11.28;56.50;101125.19;4989619;28;20044;-58
2022/02/15 09:46:11;;;;;;;10.88;1.95;;;;;;;11.12;56.81;101135.41;4991736;28;20053;-56
2022/02/15 09:48:37;;;;;;;8.73;2.00;;;;;;;11.19;56.04;101132.91;4996546;28;20473;-57
2022/02/15 09:51:04;;;;;;;12.20;1.90;;;;;;;11.33;55.90;101126.16;4996485;28;20481;-57
2022/02/15 09:53:30;;;;;;;12.40;2.08;;;;;;;11.32;54.88;101119.19;4992398;28;20095;-59
2022/02/15 09:55:56;;;;;;;13.50;2.00;;;;;;;11.40;54.56;101116.69;4994553;28;20527;-58
2022/02/15 09:58:21;;;;;;;9.48;1.80;;;;;;;11.34;54.43;101106.16;4997873;28;20300;-59
2022/02/15 10:00:48;;;;;;;15.05;2.25;;;;;;;11.20;56.15;101094.63;4993733;28;20045;-56
2022/02/15 10:03:15;;;;;;;10.52;1.92;;;;;;;11.26;55.60;101098.22;4998612;28;20120;-55
2022/02/15 10:05:46;;;;;;;13.82;2.35;;;;;;;11.30;55.32;101081.75;4989356;28;20050;-56
2022/02/15 10:08:12;;;;;;;10.43;1.88;;;;;;;11.27;54.78;101091.28;4998705;28;20511;-58
2022/02/15 10:10:39;;;;;;;11.18;1.80;;;;;;;11.36;54.97;101088.78;4996781;28;20042;-57
2022/02/15 10:13:07;;;;;;;9.32;1.90;;;;;;;11.39;54.84;101086.22;4997929;28;20073;-55
2022/02/15 10:15:35;;;;;;;7.88;1.60;;;;;;;11.03;54.68;101091.78;5010920;28;20517;-58
2022/02/15 10:18:08;;;;;;;6.93;1.67;;;;;;;11.03;54.26;101086.56;5003905;28;20053;-54
2022/02/15 10:20:35;;;;;;;9.27;1.50;;;;;;;11.05;53.48;101079.63;5004111;28;20051;-56
2022/02/15 10:23:21;;;;;;;9.02;2.00;;;;;;;11.22;53.92;101098.16;5004505;28;20044;-57
2022/02/15 10:25:48;;;;;;;7.70;1.27;;;;;;;11.55;53.95;101093.38;4999323;28;21384;-57
2022/02/15 10:28:34;;;;;;;7.85;1.40;;;;;;;11.70;55.13;101085.75;4997694;28;20076;-57
2022/02/15 10:31:02;;;;;;;7.80;1.48;;;;;;;11.92;54.27;101088.63;5001073;28;20510;-56
2022/02/15 10:33:32;;;;;;;8.80;1.95;;;;;;;12.13;53.78;101094.09;4993894;28;20640;-57
2022/02/15 10:36:05;;;;;;;8.13;1.55;;;;;;;12.24;53.19;101097.72;4999566;28;20050;-57
2022/02/15 10:38:34;;;;;;;8.00;1.52;;;;;;;12.06;53.02;101094.91;4997074;28;20488;-56
2022/02/15 10:41:13;;;;;;;7.60;1.73;;;;;;;11.88;53.50;101085.13;4997063;28;20103;-59
2022/02/15 10:43:42;;;;;;;11.15;1.95;;;;;;;11.98;53.38;101107.00;4996621;28;20076;-57
2022/02/15 10:46:15;;;;;;;5.50;1.70;;;;;;;11.76;53.97;101106.75;5001451;28;20049;-57
2022/02/15 10:48:41;;;;;;;11.10;2.78;;;;;;;11.90;53.97;101112.13;5003401;28;20040;-57
2022/02/15 10:51:07;;;;;;;9.63;1.90;;;;;;;11.69;54.22;101112.72;4999798;28;20337;-57
2022/02/15 10:53:33;;;;;;;9.82;2.00;;;;;;;11.58;54.81;101108.22;4994300;28;20041;-55
2022/02/15 10:55:58;;;;;;;8.07;1.75;;;;;;;11.67;53.51;101101.38;5000211;28;20050;-56
2022/02/15 10:58:24;;;;;;;10.27;1.88;;;;;;;11.82;53.21;101103.34;4998372;28;20492;-56
2022/02/15 11:00:51;;;;;;;7.00;1.70;;;;;;;11.70;52.00;101106.66;5001683;28;20159;-54
2022/02/15 11:03:20;;;;;;;6.07;1.92;;;;;;;11.79;52.08;101104.16;4997215;28;20045;-55
2022/02/15 11:05:45;;;;;;;9.90;1.70;;;;;;;11.66;52.53;101117.00;4992650;28;20118;-56
2022/02/15 11:08:12;;;;;;;7.57;1.58;;;;;;;11.68;52.70;101108.34;4999836;28;20587;-55
2022/02/15 11:10:49;;;;;;;7.45;1.60;;;;;;;11.56;53.13;101108.19;4998589;28;20111;-57
2022/02/15 11:13:14;;;;;;;10.18;1.83;;;;;;;11.66;51.62;101094.38;4998405;28;20124;-56
2022/02/15 11:15:41;;;;;;;6.50;1.55;;;;;;;11.90;51.86;101082.50;4968608;28;20191;-58
2022/02/15 11:18:10;;;;;;;6.18;1.60;;;;;;;12.07;51.76;101081.84;4981868;28;20497;-57
2022/02/15 11:20:56;;;;;;;11.13;1.63;;;;;;;12.11;51.36;101074.91;4982272;28;20046;-57
2022/02/15 11:23:27;;;;;;;8.20;2.08;;;;;;;12.29;50.97;101074.22;4973597;28;20049;-61
2022/02/15 11:26:07;;;;;;;8.60;1.70;;;;;;;12.37;50.51;101062.97;4970005;28;20463;-58
2022/02/15 11:28:33;;;;;;;7.15;1.55;;;;;;;12.52;50.87;101046.53;4978546;28;20334;-56